14 sierpnia 2022

Czas Kod Pogoda Temp. Widoczność Sufit Wiatr METAR/SPECI
01:50
V
22 °C 10 km+ - 080° 080° 3 kt METAR EDDG 132350Z AUTO 08003KT 040V120 CAVOK 22/14 Q1014 NOSIG
01:20
V
23 °C 10 km+ - 060° 060° 3 kt METAR EDDG 132320Z AUTO 06003KT 020V140 CAVOK 23/14 Q1014 NOSIG
00:50
V
23 °C 10 km+ - 060° 060° 3 kt METAR EDDG 132250Z AUTO 06003KT 020V130 CAVOK 23/14 Q1014 NOSIG
00:20
V
24 °C 10 km+ - 070° 070° 4 kt METAR EDDG 132220Z AUTO 07004KT 010V110 CAVOK 24/14 Q1014 NOSIG

13 sierpnia 2022

Czas Kod Pogoda Temp. Widoczność Sufit Wiatr METAR/SPECI
23:50
V
24 °C 10 km+ - Var Var 4 kt METAR EDDG 132150Z AUTO VRB04KT CAVOK 24/14 Q1014 NOSIG
23:20
V
25 °C 10 km+ - 070° 070° 4 kt METAR EDDG 132120Z AUTO 07004KT 020V140 CAVOK 25/14 Q1014 NOSIG
22:50
V
25 °C 10 km+ - 070° 070° 4 kt METAR EDDG 132050Z AUTO 07004KT 030V130 CAVOK 25/14 Q1014 NOSIG
22:20
V
26 °C 10 km+ - 070° 070° 4 kt METAR EDDG 132020Z AUTO 07004KT 010V140 CAVOK 26/14 Q1014 NOSIG
21:50
V
26 °C 10 km+ - 070° 070° 4 kt METAR EDDG 131950Z AUTO 07004KT 340V120 CAVOK 26/14 Q1014 NOSIG
21:20
V
27 °C 10 km+ - 060° 060° 4 kt METAR EDDG 131920Z AUTO 06004KT 020V130 CAVOK 27/13 Q1014 NOSIG
20:50
V
28 °C 10 km+ - 060° 060° 3 kt METAR EDDG 131850Z AUTO 06003KT 030V100 CAVOK 28/13 Q1014 NOSIG
20:20
V
29 °C 10 km+ - 050° 050° 4 kt METAR EDDG 131820Z AUTO 05004KT 020V090 CAVOK 29/12 Q1014 NOSIG
19:50
V
30 °C 10 km+ - Var Var 4 kt METAR EDDG 131750Z AUTO VRB04KT CAVOK 30/12 Q1014 NOSIG
19:20
V
30 °C 10 km+ - Var Var 5 kt METAR EDDG 131720Z AUTO VRB05KT CAVOK 30/12 Q1014 NOSIG
18:50
V
31 °C 10 km+ - 080° 080° 5 kt METAR EDDG 131650Z AUTO 08005KT 020V190 CAVOK 31/12 Q1014 NOSIG
18:20
V
31 °C 10 km+ - Var Var 6 kt METAR EDDG 131620Z AUTO VRB06KT CAVOK 31/11 Q1014 NOSIG
17:50
V
31 °C 10 km+ - Var Var 5 kt METAR EDDG 131550Z AUTO VRB05KT CAVOK 31/11 Q1014 NOSIG
17:20
V
30 °C 10 km+ - 050° 050° 6 kt METAR EDDG 131520Z AUTO 05006KT 360V130 CAVOK 30/12 Q1015 NOSIG
16:50
V
30 °C 10 km+ - 090° 090° 4 kt METAR EDDG 131450Z AUTO 09004KT 010V150 CAVOK 30/11 Q1015
16:20
V
31 °C 10 km+ - Var Var 6 - 16 kt METAR EDDG 131420Z AUTO VRB06G16KT CAVOK 31/11 Q1015 NOSIG
15:50
V
32 °C 10 km+ - 140° 140° 8 kt METAR EDDG 131350Z AUTO 14008KT 100V200 CAVOK 32/11 Q1016 NOSIG
15:20
V
31 °C 10 km+ - Var Var 5 kt METAR EDDG 131320Z AUTO VRB05KT CAVOK 31/11 Q1016 NOSIG
14:50
V
31 °C 10 km+ - Var Var 7 - 19 kt METAR EDDG 131250Z AUTO VRB07G19KT CAVOK 31/10 Q1016 NOSIG
14:20
V
31 °C 10 km+ - Var Var 6 kt METAR EDDG 131220Z AUTO VRB06KT CAVOK 31/10 Q1017 NOSIG
13:50
V
31 °C 10 km+ - Var Var 5 kt METAR EDDG 131150Z AUTO VRB05KT CAVOK 31/10 Q1017 NOSIG
13:20
V
30 °C 10 km+ - 050° 050° 7 kt METAR EDDG 131120Z AUTO 05007KT 010V150 CAVOK 30/12 Q1017 NOSIG
12:50
V
30 °C 10 km+ - Var Var 6 kt METAR EDDG 131050Z AUTO VRB06KT CAVOK 30/11 Q1017 NOSIG
12:20
V
30 °C 10 km+ - Var Var 5 kt METAR EDDG 131020Z AUTO VRB05KT CAVOK 30/11 Q1017 NOSIG
11:50
V
29 °C 10 km+ - 060° 060° 6 kt METAR EDDG 130950Z AUTO 06006KT 360V160 CAVOK 29/11 Q1018 NOSIG
11:20
V
29 °C 10 km+ - Var Var 4 kt METAR EDDG 130920Z AUTO VRB04KT CAVOK 29/11 Q1018 NOSIG
10:50
V
28 °C 10 km+ - Var Var 4 kt METAR EDDG 130850Z AUTO VRB04KT CAVOK 28/11 Q1018 NOSIG
10:20
V
27 °C 10 km+ - 080° 080° 4 kt METAR EDDG 130820Z AUTO 08004KT 010V170 CAVOK 27/11 Q1018 NOSIG
09:50
V
26 °C 10 km+ - 100° 100° 4 kt METAR EDDG 130750Z AUTO 10004KT 010V160 CAVOK 26/11 Q1018 NOSIG
09:20
V
25 °C 10 km+ - 100° 100° 4 kt METAR EDDG 130720Z AUTO 10004KT 020V170 CAVOK 25/11 Q1018 NOSIG
08:50
V
24 °C 10 km+ - Var Var 2 kt METAR EDDG 130650Z AUTO VRB02KT CAVOK 24/12 Q1018 NOSIG
08:20
V
22 °C 10 km+ - 090° 090° 3 kt METAR EDDG 130620Z AUTO 09003KT 040V130 CAVOK 22/11 Q1018 NOSIG
07:50
V
19 °C 10 km+ - Var 000° 0 kt METAR EDDG 130550Z AUTO 00000KT CAVOK 19/11 Q1018
07:20
V
16 °C 10 km+ - Var Var 2 kt METAR EDDG 130520Z AUTO VRB02KT CAVOK 16/11 Q1018 NOSIG
06:50
V
14 °C 10 km+ - Var Var 1 kt METAR EDDG 130450Z AUTO VRB01KT CAVOK 14/10 Q1018 NOSIG
06:20
V
14 °C 10 km+ - 040° 040° 2 kt METAR EDDG 130420Z AUTO 04002KT CAVOK 14/10 Q1018 NOSIG
05:50
V
14 °C 10 km+ - Var Var 2 kt METAR EDDG 130350Z AUTO VRB02KT CAVOK 14/11 Q1018 NOSIG
05:20
V
14 °C 10 km+ - Var Var 2 kt METAR EDDG 130320Z AUTO VRB02KT CAVOK 14/11 Q1018 NOSIG
04:50
V
14 °C 10 km+ - Var Var 2 kt METAR EDDG 130250Z AUTO VRB02KT CAVOK 14/10 Q1018 NOSIG
04:20
V
15 °C 10 km+ - Var Var 1 kt METAR EDDG 130220Z AUTO VRB01KT CAVOK 15/10 Q1018 NOSIG
03:50
V
16 °C 10 km+ - Var Var 1 kt METAR EDDG 130150Z AUTO VRB01KT CAVOK 16/10 Q1018 NOSIG
03:20
V
16 °C 10 km+ - 040° 040° 2 kt METAR EDDG 130120Z AUTO 04002KT CAVOK 16/10 Q1018 NOSIG
02:50
V
18 °C 10 km+ - Var Var 2 kt METAR EDDG 130050Z AUTO VRB02KT CAVOK 18/10 Q1018 NOSIG
02:20
V
19 °C 10 km+ - Var Var 2 kt METAR EDDG 130020Z AUTO VRB02KT CAVOK 19/09 Q1018 NOSIG
01:50
V
20 °C 10 km+ - Var Var 2 kt METAR EDDG 122350Z AUTO VRB02KT CAVOK 20/09 Q1018 NOSIG
01:20
V
21 °C 10 km+ - Var Var 2 kt METAR EDDG 122320Z AUTO VRB02KT CAVOK 21/08 Q1018 NOSIG
00:50
V
21 °C 10 km+ - Var Var 2 kt METAR EDDG 122250Z AUTO VRB02KT CAVOK 21/08 Q1018 NOSIG
00:20
V
22 °C 10 km+ - Var Var 3 kt METAR EDDG 122220Z AUTO VRB03KT CAVOK 22/08 Q1018 NOSIG

12 sierpnia 2022

Czas Kod Pogoda Temp. Widoczność Sufit Wiatr METAR/SPECI
23:50
V
22 °C 10 km+ - 090° 090° 3 kt METAR EDDG 122150Z AUTO 09003KT 040V180 CAVOK 22/08 Q1018 NOSIG
23:20
V
23 °C 10 km+ - 070° 070° 3 kt METAR EDDG 122120Z AUTO 07003KT 030V160 CAVOK 23/08 Q1018 NOSIG
22:50
V
23 °C 10 km+ - 070° 070° 3 kt METAR EDDG 122050Z AUTO 07003KT 020V130 CAVOK 23/08 Q1018 NOSIG
22:20
V
22 °C 10 km+ - 060° 060° 3 kt METAR EDDG 122020Z AUTO 06003KT 020V100 CAVOK 22/10 Q1018 NOSIG
21:50
V
24 °C 10 km+ - 060° 060° 3 kt METAR EDDG 121950Z AUTO 06003KT 010V090 CAVOK 24/09 Q1018 NOSIG
21:20
V
26 °C 10 km+ - 060° 060° 3 kt METAR EDDG 121920Z AUTO 06003KT 020V100 CAVOK 26/08 Q1018 NOSIG
20:50
V
27 °C 10 km+ - 060° 060° 4 kt METAR EDDG 121850Z AUTO 06004KT 350V120 CAVOK 27/08 Q1017 NOSIG
20:20
V
28 °C 10 km+ - 070° 070° 4 kt METAR EDDG 121820Z AUTO 07004KT 010V120 CAVOK 28/07 Q1017 NOSIG
19:50
V
29 °C 10 km+ - 070° 070° 7 kt METAR EDDG 121750Z AUTO 07007KT 020V130 CAVOK 29/07 Q1017 NOSIG
19:20
V
30 °C 10 km+ - 080° 080° 7 kt METAR EDDG 121720Z AUTO 08007KT 030V160 CAVOK 30/06 Q1017 NOSIG
18:50
V
30 °C 10 km+ - 090° 090° 6 kt METAR EDDG 121650Z AUTO 09006KT 010V150 CAVOK 30/06 Q1017 NOSIG
18:20
V
31 °C 10 km+ - 090° 090° 7 kt METAR EDDG 121620Z AUTO 09007KT 360V130 CAVOK 31/07 Q1017 NOSIG
17:50
V
31 °C 10 km+ - Var Var 6 kt METAR EDDG 121550Z AUTO VRB06KT CAVOK 31/06 Q1018 NOSIG
17:20
V
31 °C 10 km+ - Var Var 8 kt METAR EDDG 121520Z AUTO VRB08KT CAVOK 31/06 Q1018 NOSIG
16:50
V
31 °C 10 km+ - 030° 030° 7 kt METAR EDDG 121450Z AUTO 03007KT 320V130 CAVOK 31/07 Q1018 NOSIG
16:20
V
31 °C 10 km+ - 060° 060° 8 kt METAR EDDG 121420Z AUTO 06008KT 360V150 CAVOK 31/08 Q1018 NOSIG
15:50
V
31 °C 10 km+ - 040° 040° 8 kt METAR EDDG 121350Z AUTO 04008KT 340V120 CAVOK 31/07 Q1018 NOSIG
15:20
V
31 °C 10 km+ - Var Var 5 - 17 kt METAR EDDG 121320Z AUTO VRB05G17KT CAVOK 31/08 Q1018 NOSIG
14:50
V
31 °C 10 km+ - Var Var 7 kt METAR EDDG 121250Z AUTO VRB07KT CAVOK 31/08 Q1018
14:20
V
31 °C 10 km+ - Var Var 6 kt METAR EDDG 121220Z AUTO VRB06KT CAVOK 31/08 Q1019 NOSIG
13:50
V
31 °C 10 km+ - Var Var 6 kt METAR EDDG 121150Z AUTO VRB06KT CAVOK 31/08 Q1019 NOSIG
13:20
V
30 °C 10 km+ - Var Var 6 kt METAR EDDG 121120Z AUTO VRB06KT CAVOK 30/08 Q1019 NOSIG
12:50
V
30 °C 10 km+ - Var Var 7 kt METAR EDDG 121050Z AUTO VRB07KT CAVOK 30/07 Q1020 NOSIG
12:20
V
30 °C 10 km+ - Var Var 5 kt METAR EDDG 121020Z AUTO VRB05KT CAVOK 30/07 Q1020 NOSIG
11:50
V
29 °C 10 km+ - 120° 120° 6 kt METAR EDDG 120950Z AUTO 12006KT 070V180 CAVOK 29/08 Q1020 NOSIG
11:20
V
29 °C 10 km+ - 090° 090° 6 kt METAR EDDG 120920Z AUTO 09006KT 010V170 CAVOK 29/08 Q1020 NOSIG
10:50
V
28 °C 10 km+ - Var Var 4 kt METAR EDDG 120850Z AUTO VRB04KT CAVOK 28/10 Q1020 NOSIG
10:20
V
27 °C 10 km+ - Var Var 4 kt METAR EDDG 120820Z AUTO VRB04KT CAVOK 27/11 Q1020 NOSIG
09:50
V
26 °C 10 km+ - 110° 110° 5 kt METAR EDDG 120750Z AUTO 11005KT 050V160 CAVOK 26/10 Q1020 NOSIG
09:20
V
24 °C 10 km+ - 100° 100° 4 kt METAR EDDG 120720Z AUTO 10004KT 040V180 CAVOK 24/10 Q1020 NOSIG
08:50
V
23 °C 10 km+ - Var Var 2 kt METAR EDDG 120650Z AUTO VRB02KT CAVOK 23/12 Q1020 NOSIG
08:20
V
21 °C 10 km+ - Var Var 2 kt METAR EDDG 120620Z AUTO VRB02KT CAVOK 21/12 Q1020 NOSIG
07:50
V
19 °C 10 km+ - Var Var 1 kt METAR EDDG 120550Z AUTO VRB01KT CAVOK 19/12 Q1020 NOSIG
07:20
V
16 °C 10 km+ - Var Var 1 kt METAR EDDG 120520Z AUTO VRB01KT CAVOK 16/11 Q1020 NOSIG
06:50
V
14 °C 10 km+ - 270° 270° 2 kt METAR EDDG 120450Z AUTO 27002KT CAVOK 14/11 Q1020 NOSIG
06:20
V
14 °C 10 km+ - Var Var 1 kt METAR EDDG 120420Z AUTO VRB01KT CAVOK 14/12 Q1020 NOSIG
05:50
V
15 °C 10 km+ - Var Var 1 kt METAR EDDG 120350Z AUTO VRB01KT CAVOK 15/11 Q1020 NOSIG
05:20
V
15 °C 10 km+ - 170° 170° 1 kt METAR EDDG 120320Z AUTO 17001KT CAVOK 15/11 Q1020 NOSIG
04:50
V
16 °C 10 km+ - Var Var 1 kt METAR EDDG 120250Z AUTO VRB01KT CAVOK 16/11 Q1020 NOSIG
04:20
V
16 °C 10 km+ - Var 000° 0 kt METAR EDDG 120220Z AUTO 00000KT CAVOK 16/11 Q1020 NOSIG
03:50
V
17 °C 10 km+ - 050° 050° 3 kt METAR EDDG 120150Z AUTO 05003KT CAVOK 17/11 Q1020 NOSIG
03:20
V
18 °C 10 km+ - 050° 050° 3 kt METAR EDDG 120120Z AUTO 05003KT CAVOK 18/12 Q1020 NOSIG
02:50
V
19 °C 10 km+ - 040° 040° 3 kt METAR EDDG 120050Z AUTO 04003KT CAVOK 19/12 Q1020 NOSIG
02:20
V
19 °C 10 km+ - 040° 040° 4 kt METAR EDDG 120020Z AUTO 04004KT CAVOK 19/12 Q1020 NOSIG
01:50
V
19 °C 10 km+ - 030° 030° 3 kt METAR EDDG 112350Z AUTO 03003KT CAVOK 19/12 Q1020 NOSIG
01:20
V
20 °C 10 km+ - 050° 050° 3 kt METAR EDDG 112320Z AUTO 05003KT CAVOK 20/12 Q1020 NOSIG
00:50
V
20 °C 10 km+ - 040° 040° 4 kt METAR EDDG 112250Z AUTO 04004KT 330V070 CAVOK 20/12 Q1020 NOSIG
00:20
V
20 °C 10 km+ - 040° 040° 3 kt METAR EDDG 112220Z AUTO 04003KT 350V080 CAVOK 20/11 Q1020 NOSIG

11 sierpnia 2022

Czas Kod Pogoda Temp. Widoczność Sufit Wiatr METAR/SPECI
23:50
V
19 °C 10 km+ - 040° 040° 3 kt METAR EDDG 112150Z AUTO 04003KT 360V080 CAVOK 19/11 Q1020 NOSIG
23:20
V
21 °C 10 km+ - 050° 050° 3 kt METAR EDDG 112120Z AUTO 05003KT 360V090 CAVOK 21/10 Q1020 NOSIG
22:50
V
20 °C 10 km+ - Var Var 2 kt METAR EDDG 112050Z AUTO VRB02KT CAVOK 20/11 Q1020 NOSIG
22:20
V
21 °C 10 km+ - 040° 040° 2 kt METAR EDDG 112020Z AUTO 04002KT CAVOK 21/09 Q1020 NOSIG
21:50
V
23 °C 10 km+ - 030° 030° 2 kt METAR EDDG 111950Z AUTO 03002KT CAVOK 23/09 Q1020 NOSIG
21:20
V
24 °C 10 km+ - 050° 050° 2 kt METAR EDDG 111920Z AUTO 05002KT CAVOK 24/09 Q1020 NOSIG
20:50
V
27 °C 10 km+ - 050° 050° 3 kt METAR EDDG 111850Z AUTO 05003KT 360V090 CAVOK 27/09 Q1020 NOSIG
20:20
V
28 °C 10 km+ - 060° 060° 4 kt METAR EDDG 111820Z AUTO 06004KT 360V100 CAVOK 28/08 Q1020 NOSIG
19:50
V
29 °C 10 km+ - 070° 070° 5 kt METAR EDDG 111750Z AUTO 07005KT 010V140 CAVOK 29/08 Q1020 NOSIG
19:20
V
30 °C 10 km+ - 040° 040° 6 kt METAR EDDG 111720Z AUTO 04006KT 360V100 CAVOK 30/09 Q1020 NOSIG
18:50
V
30 °C 10 km+ - 050° 050° 6 kt METAR EDDG 111650Z AUTO 05006KT 360V130 CAVOK 30/08 Q1020 NOSIG
18:20
V
30 °C 10 km+ - 040° 040° 7 kt METAR EDDG 111620Z AUTO 04007KT 350V140 CAVOK 30/08 Q1020 NOSIG
17:50
V
31 °C 10 km+ - 040° 040° 7 kt METAR EDDG 111550Z AUTO 04007KT 350V130 CAVOK 31/08 Q1020 NOSIG
17:20
V
30 °C 10 km+ - 050° 050° 6 kt METAR EDDG 111520Z AUTO 05006KT 020V110 CAVOK 30/08 Q1020 NOSIG
16:50
V
31 °C 10 km+ - Var Var 7 kt METAR EDDG 111450Z AUTO VRB07KT CAVOK 31/08 Q1021 NOSIG
Starsze dane

My i osoby trzecie śledzimy twoje zachowanie w internecie na naszej stronie za pomocą plików cookie. Jeśli kontynuujesz, zakładamy, że zgadzasz się z naszą polityką plików cookie. Dowiedz się więcej